createdAt,value
2022-12-29T00:01:29.597Z,1.96
2022-12-29T00:03:58.526Z,1.98
2022-12-29T00:06:27.734Z,2.02
2022-12-29T00:08:56.772Z,2.13
2022-12-29T00:11:27.356Z,2.17
2022-12-29T00:14:17.620Z,2.19
2022-12-29T00:16:49.059Z,2.20
2022-12-29T00:19:38.719Z,2.26
2022-12-29T00:22:47.024Z,2.32
2022-12-29T00:25:34.562Z,2.35
2022-12-29T00:28:21.190Z,2.39
2022-12-29T00:31:09.134Z,2.37
2022-12-29T00:33:55.912Z,2.22
2022-12-29T00:36:28.316Z,2.16
2022-12-29T00:39:17.749Z,2.13
2022-12-29T00:42:04.641Z,2.19
2022-12-29T00:44:33.540Z,1.92
2022-12-29T00:47:05.517Z,1.93
2022-12-29T00:49:34.336Z,2.03
2022-12-29T00:52:05.487Z,2.15
2022-12-29T00:54:36.634Z,2.25
2022-12-29T00:57:06.144Z,2.30
2022-12-29T00:59:37.390Z,2.37
2022-12-29T01:02:08.543Z,2.27
2022-12-29T01:04:37.851Z,2.31
2022-12-29T01:07:07.190Z,2.35
2022-12-29T01:09:53.412Z,2.36
2022-12-29T01:12:41.839Z,2.39
2022-12-29T01:15:16.305Z,2.44
2022-12-29T01:17:49.940Z,2.43
2022-12-29T01:20:18.913Z,2.39
2022-12-29T01:22:48.510Z,2.45
2022-12-29T01:25:18.305Z,2.43
2022-12-29T01:27:47.527Z,2.45
2022-12-29T01:30:16.297Z,2.46
2022-12-29T01:32:51.513Z,2.38
2022-12-29T01:35:21.660Z,2.37
2022-12-29T01:37:50.864Z,2.36
2022-12-29T01:40:20.260Z,2.39
2022-12-29T01:42:49.202Z,2.36
2022-12-29T01:45:19.192Z,2.30
2022-12-29T01:47:52.386Z,2.26
2022-12-29T01:50:25.266Z,2.21
2022-12-29T01:53:01.736Z,2.26
2022-12-29T01:55:32.430Z,2.23
2022-12-29T01:58:04.693Z,2.00
2022-12-29T02:00:58.771Z,2.05
2022-12-29T02:03:30.800Z,2.08
2022-12-29T02:06:05.401Z,2.03
2022-12-29T02:08:34.505Z,2.00
2022-12-29T02:11:03.823Z,1.90
2022-12-29T02:13:36.495Z,1.85
2022-12-29T02:16:16.282Z,1.93
2022-12-29T02:18:52.961Z,1.99
2022-12-29T02:21:57.439Z,2.06
2022-12-29T02:24:55.446Z,2.04
2022-12-29T02:27:39.111Z,2.02
2022-12-29T02:30:19.296Z,1.94
2022-12-29T02:32:54.827Z,1.80
2022-12-29T02:35:32.061Z,1.85
2022-12-29T02:38:07.590Z,1.79
2022-12-29T02:40:43.449Z,1.63
2022-12-29T02:43:21.568Z,1.68
2022-12-29T02:46:06.665Z,1.83
2022-12-29T02:48:40.848Z,1.76
2022-12-29T02:51:12.103Z,1.73
2022-12-29T02:53:59.447Z,1.76
2022-12-29T02:56:29.203Z,1.82
2022-12-29T02:58:58.222Z,1.83
2022-12-29T03:01:34.714Z,1.94
2022-12-29T03:04:23.873Z,2.02
2022-12-29T03:06:58.796Z,2.01
2022-12-29T03:09:33.624Z,2.02
2022-12-29T03:12:16.605Z,2.07
2022-12-29T03:15:15.550Z,2.08
2022-12-29T03:17:51.503Z,2.04
2022-12-29T03:20:24.858Z,2.14
2022-12-29T03:23:01.811Z,2.13
2022-12-29T03:25:35.342Z,2.04
2022-12-29T03:28:10.583Z,2.10
2022-12-29T03:30:46.484Z,2.14
2022-12-29T03:33:19.756Z,2.17
2022-12-29T03:35:53.584Z,2.23
2022-12-29T03:38:28.230Z,2.31
2022-12-29T03:41:00.258Z,2.36
2022-12-29T03:43:31.784Z,2.44
2022-12-29T03:46:00.843Z,2.53
2022-12-29T03:48:30.016Z,2.58
2022-12-29T03:51:01.060Z,2.71
2022-12-29T03:53:30.550Z,2.81
2022-12-29T03:56:00.318Z,2.93
2022-12-29T03:58:29.591Z,3.07
2022-12-29T04:01:12.433Z,3.12
2022-12-29T04:03:41.993Z,3.13
2022-12-29T04:06:13.233Z,3.17
2022-12-29T04:08:49.201Z,3.23
2022-12-29T04:11:19.118Z,3.25
2022-12-29T04:13:48.319Z,3.32
2022-12-29T04:16:21.854Z,3.36
2022-12-29T04:18:50.918Z,3.33
2022-12-29T04:21:21.444Z,3.12
2022-12-29T04:23:50.605Z,3.35
2022-12-29T04:26:19.487Z,3.36
2022-12-29T04:29:10.357Z,3.46
2022-12-29T04:31:48.051Z,3.49
2022-12-29T04:34:16.828Z,3.53
2022-12-29T04:36:50.617Z,3.53
2022-12-29T04:39:20.193Z,3.55
2022-12-29T04:41:48.895Z,3.54
2022-12-29T04:44:21.808Z,3.46
2022-12-29T04:47:14.263Z,3.54
2022-12-29T04:49:52.883Z,3.56
2022-12-29T04:52:43.877Z,3.47
2022-12-29T04:55:15.284Z,3.38
2022-12-29T04:57:44.699Z,3.29
2022-12-29T05:00:19.038Z,3.32
2022-12-29T05:02:48.126Z,3.39
2022-12-29T05:05:17.877Z,3.40
2022-12-29T05:08:16.841Z,3.47
2022-12-29T05:10:47.721Z,3.60
2022-12-29T05:13:17.575Z,3.40
2022-12-29T05:15:50.915Z,3.52
2022-12-29T05:18:19.866Z,3.54
2022-12-29T05:20:49.163Z,3.61
2022-12-29T05:23:19.443Z,3.69
2022-12-29T05:25:54.437Z,3.70
2022-12-29T05:28:49.646Z,3.67
2022-12-29T05:31:21.369Z,3.72
2022-12-29T05:33:50.858Z,3.63
2022-12-29T05:36:20.456Z,3.72
2022-12-29T05:38:54.042Z,3.74
2022-12-29T05:41:23.056Z,3.75
2022-12-29T05:44:32.172Z,3.82
2022-12-29T05:47:16.140Z,3.80
2022-12-29T05:49:51.073Z,3.75
2022-12-29T05:52:41.162Z,3.71
2022-12-29T05:55:12.399Z,3.61
2022-12-29T05:57:43.080Z,3.74
2022-12-29T06:00:16.538Z,3.77
2022-12-29T06:02:47.826Z,3.83
2022-12-29T06:05:18.719Z,3.83
2022-12-29T06:07:47.547Z,3.77
2022-12-29T06:10:20.051Z,3.76
2022-12-29T06:13:50.384Z,3.92
2022-12-29T06:16:19.265Z,3.96
2022-12-29T06:18:48.170Z,4.04
2022-12-29T06:21:18.055Z,4.09
2022-12-29T06:23:48.236Z,4.08
2022-12-29T06:26:18.264Z,4.10
2022-12-29T06:28:48.725Z,4.04
2022-12-29T06:31:19.147Z,4.08
2022-12-29T06:33:50.079Z,4.13
2022-12-29T06:36:19.662Z,4.11
2022-12-29T06:38:48.386Z,4.10
2022-12-29T06:41:18.818Z,4.12
2022-12-29T06:44:20.020Z,4.10
2022-12-29T06:47:02.832Z,4.14
2022-12-29T06:49:31.547Z,4.16
2022-12-29T06:52:01.779Z,4.10
2022-12-29T06:54:30.741Z,4.13
2022-12-29T06:57:00.877Z,4.06
2022-12-29T06:59:29.596Z,3.97
2022-12-29T07:01:58.594Z,3.98
2022-12-29T07:04:28.167Z,3.93
2022-12-29T07:06:57.427Z,3.99
2022-12-29T07:09:26.567Z,3.99
2022-12-29T07:11:55.559Z,3.99
2022-12-29T07:14:26.121Z,4.04
2022-12-29T07:16:55.563Z,3.96
2022-12-29T07:19:24.593Z,4.11
2022-12-29T07:21:53.940Z,4.19
2022-12-29T07:24:23.557Z,4.21
2022-12-29T07:26:52.289Z,4.15
2022-12-29T07:29:21.692Z,4.18
2022-12-29T07:31:52.089Z,4.26
2022-12-29T07:34:21.013Z,4.34
2022-12-29T07:36:53.364Z,4.43
2022-12-29T07:39:22.372Z,4.46
2022-12-29T07:41:51.070Z,4.53
2022-12-29T07:44:21.907Z,4.68
2022-12-29T07:47:12.043Z,4.87
2022-12-29T07:49:42.294Z,4.98
2022-12-29T07:52:10.736Z,5.02
2022-12-29T07:54:39.162Z,5.12
2022-12-29T07:57:08.201Z,5.21
2022-12-29T07:59:36.648Z,5.25
2022-12-29T08:02:05.377Z,5.25
2022-12-29T08:04:36.269Z,5.31
2022-12-29T08:07:05.146Z,5.34
2022-12-29T08:09:34.253Z,5.35
2022-12-29T08:12:02.601Z,5.41
2022-12-29T08:15:21.299Z,5.35
2022-12-29T08:17:51.614Z,5.40
2022-12-29T08:20:21.928Z,5.42
2022-12-29T08:22:50.879Z,5.47
2022-12-29T08:25:20.643Z,5.51
2022-12-29T08:27:49.011Z,5.56
2022-12-29T08:30:17.892Z,5.60
2022-12-29T08:32:46.703Z,5.68
2022-12-29T08:35:15.207Z,5.71
2022-12-29T08:37:47.039Z,5.86
2022-12-29T08:40:16.130Z,5.99
2022-12-29T08:42:44.311Z,6.05
2022-12-29T08:45:13.328Z,6.08
2022-12-29T08:47:41.514Z,6.11
2022-12-29T08:50:09.903Z,6.25
2022-12-29T08:52:38.658Z,6.29
2022-12-29T08:55:09.541Z,6.29
2022-12-29T08:57:39.636Z,6.40
2022-12-29T09:00:17.029Z,6.46
2022-12-29T09:02:45.894Z,6.56
2022-12-29T09:05:14.713Z,6.69
2022-12-29T09:07:43.206Z,6.75
2022-12-29T09:10:13.097Z,6.83
2022-12-29T09:12:41.823Z,6.93
2022-12-29T09:15:11.148Z,6.97
2022-12-29T09:18:05.045Z,7.12
2022-12-29T09:20:34.867Z,7.24
2022-12-29T09:23:03.760Z,7.31
2022-12-29T09:25:33.805Z,7.39
2022-12-29T09:28:05.092Z,7.55
2022-12-29T09:30:33.475Z,7.69
2022-12-29T09:33:02.629Z,7.85
2022-12-29T09:35:31.061Z,8.08
2022-12-29T09:37:59.249Z,8.20
2022-12-29T09:40:31.041Z,8.30
2022-12-29T09:43:24.879Z,8.41
2022-12-29T09:45:57.600Z,8.67
2022-12-29T09:48:30.279Z,8.71
2022-12-29T09:51:01.264Z,8.86
2022-12-29T09:53:32.731Z,8.92
2022-12-29T09:56:02.851Z,8.97
2022-12-29T09:58:36.991Z,8.94
2022-12-29T10:01:31.683Z,9.00
2022-12-29T10:04:00.969Z,8.99
2022-12-29T10:06:45.571Z,9.07
2022-12-29T10:09:31.895Z,9.15
2022-12-29T10:12:08.770Z,9.19
2022-12-29T10:14:58.202Z,9.25
2022-12-29T10:17:32.040Z,9.23
2022-12-29T10:20:14.451Z,9.29
2022-12-29T10:22:55.741Z,9.34
2022-12-29T10:25:28.402Z,9.32
2022-12-29T10:28:01.972Z,9.33
2022-12-29T10:30:31.761Z,9.41
2022-12-29T10:33:01.274Z,9.47
2022-12-29T10:35:34.723Z,9.52
2022-12-29T10:38:07.362Z,9.53
2022-12-29T10:40:41.331Z,9.56
2022-12-29T10:43:24.657Z,9.61
2022-12-29T10:45:54.936Z,9.65
2022-12-29T10:48:31.511Z,9.70
2022-12-29T10:51:02.200Z,9.74
2022-12-29T10:53:36.440Z,9.80
2022-12-29T10:56:07.849Z,9.87
2022-12-29T10:58:35.994Z,9.91
2022-12-29T11:01:05.852Z,9.94
2022-12-29T11:03:47.120Z,10.02
2022-12-29T11:06:19.657Z,10.07
2022-12-29T11:08:53.560Z,10.15
2022-12-29T11:11:27.124Z,10.18
2022-12-29T11:14:00.209Z,10.27
2022-12-29T11:16:35.269Z,10.32
2022-12-29T11:19:04.749Z,10.33
2022-12-29T11:21:35.084Z,10.34
2022-12-29T11:24:05.125Z,10.28
2022-12-29T11:26:34.761Z,10.24
2022-12-29T11:29:22.530Z,10.27
2022-12-29T11:31:53.620Z,10.32
2022-12-29T11:34:24.514Z,10.29
2022-12-29T11:36:54.198Z,10.28
2022-12-29T11:39:39.333Z,10.26
2022-12-29T11:42:10.584Z,10.23
2022-12-29T11:44:45.483Z,10.24
2022-12-29T11:47:24.067Z,10.20
2022-12-29T11:49:53.411Z,10.21
2022-12-29T11:52:25.108Z,10.27
2022-12-29T11:54:54.049Z,10.30
2022-12-29T11:57:24.001Z,10.30
2022-12-29T11:59:56.210Z,10.29
2022-12-29T12:02:45.000Z,10.23
2022-12-29T12:05:31.585Z,10.21
2022-12-29T12:08:04.594Z,10.30
2022-12-29T12:10:39.643Z,10.41
2022-12-29T12:13:14.263Z,10.45
2022-12-29T12:15:49.114Z,10.49
2022-12-29T12:18:35.450Z,10.50
2022-12-29T12:21:08.675Z,10.56
2022-12-29T12:23:46.145Z,10.61
2022-12-29T12:26:16.056Z,10.60
2022-12-29T12:28:54.946Z,10.69
2022-12-29T12:31:33.715Z,10.79
2022-12-29T12:34:05.493Z,10.84
2022-12-29T12:36:58.795Z,10.89
2022-12-29T12:39:28.750Z,10.95
2022-12-29T12:42:09.425Z,11.00
2022-12-29T12:44:44.179Z,11.16
2022-12-29T12:47:25.757Z,11.18
2022-12-29T12:50:06.239Z,11.28
2022-12-29T12:52:41.047Z,11.20
2022-12-29T12:55:37.387Z,11.28
2022-12-29T12:58:11.664Z,11.35
2022-12-29T13:00:46.118Z,11.34
2022-12-29T13:03:17.314Z,11.39
2022-12-29T13:05:59.681Z,11.34
2022-12-29T13:08:44.038Z,11.42
2022-12-29T13:11:16.689Z,11.47
2022-12-29T13:13:58.540Z,11.49
2022-12-29T13:16:31.731Z,11.44
2022-12-29T13:19:03.837Z,11.55
2022-12-29T13:21:56.166Z,11.56
2022-12-29T13:24:29.319Z,11.61
2022-12-29T13:27:05.337Z,11.62
2022-12-29T13:29:37.555Z,11.56
2022-12-29T13:32:24.174Z,11.55
2022-12-29T13:35:04.961Z,11.57
2022-12-29T13:37:38.274Z,11.60
2022-12-29T13:40:13.425Z,11.61
2022-12-29T13:42:43.027Z,11.56
2022-12-29T13:45:15.854Z,11.56
2022-12-29T13:47:47.751Z,11.58
2022-12-29T13:50:19.496Z,11.63
2022-12-29T13:52:55.050Z,11.58
2022-12-29T13:55:27.845Z,11.61
2022-12-29T13:58:03.103Z,11.59
2022-12-29T14:00:35.762Z,11.52
2022-12-29T14:03:22.813Z,11.51
2022-12-29T14:06:07.516Z,11.46
2022-12-29T14:08:37.642Z,11.46
2022-12-29T14:11:10.166Z,11.46
2022-12-29T14:13:41.740Z,11.44
2022-12-29T14:16:11.697Z,11.41
2022-12-29T14:18:44.874Z,11.38
2022-12-29T14:21:20.619Z,11.33
2022-12-29T14:23:51.579Z,11.29
2022-12-29T14:26:35.986Z,11.28
2022-12-29T14:29:42.482Z,11.35
2022-12-29T14:32:40.512Z,11.28
2022-12-29T14:35:42.227Z,11.24
2022-12-29T14:38:19.263Z,11.23
2022-12-29T14:40:50.145Z,11.17
2022-12-29T14:43:26.066Z,11.18
2022-12-29T14:45:57.927Z,11.13
2022-12-29T14:48:34.652Z,11.07
2022-12-29T14:51:03.371Z,11.07
2022-12-29T14:53:47.306Z,11.07
2022-12-29T14:56:17.838Z,11.00
2022-12-29T14:58:51.980Z,10.97
2022-12-29T15:01:24.957Z,11.00
2022-12-29T15:03:56.306Z,11.00
2022-12-29T15:06:26.244Z,10.93
2022-12-29T15:08:57.999Z,10.88
2022-12-29T15:11:43.515Z,10.84
2022-12-29T15:14:36.498Z,10.86
2022-12-29T15:17:12.634Z,10.81
2022-12-29T15:19:40.828Z,10.76
2022-12-29T15:22:11.260Z,10.74
2022-12-29T15:24:43.537Z,10.74
2022-12-29T15:27:15.723Z,10.70
2022-12-29T15:29:45.825Z,10.64
2022-12-29T15:32:25.440Z,10.59
2022-12-29T15:34:54.712Z,10.54
2022-12-29T15:37:25.435Z,10.51
2022-12-29T15:39:54.790Z,10.45
2022-12-29T15:42:33.352Z,10.43
2022-12-29T15:45:10.893Z,10.37
2022-12-29T15:47:40.546Z,10.39
2022-12-29T15:50:24.093Z,10.36
2022-12-29T15:52:52.547Z,10.25
2022-12-29T15:55:26.583Z,10.27
2022-12-29T15:58:00.628Z,10.31
2022-12-29T16:00:30.952Z,10.29
2022-12-29T16:03:01.614Z,10.22
2022-12-29T16:05:35.412Z,10.06
2022-12-29T16:08:04.091Z,10.00
2022-12-29T16:10:35.022Z,10.04
2022-12-29T16:13:06.971Z,10.05
2022-12-29T16:15:35.226Z,9.94
2022-12-29T16:18:03.381Z,9.88
2022-12-29T16:20:38.481Z,9.82
2022-12-29T16:23:06.911Z,9.82
2022-12-29T16:25:38.462Z,9.82
2022-12-29T16:28:19.804Z,9.82
2022-12-29T16:30:48.200Z,9.80
2022-12-29T16:33:36.263Z,9.68
2022-12-29T16:36:04.989Z,9.72
2022-12-29T16:38:34.538Z,9.75
2022-12-29T16:41:04.087Z,9.79
2022-12-29T16:43:35.703Z,9.86
2022-12-29T16:46:23.931Z,9.90
2022-12-29T16:48:55.045Z,9.89
2022-12-29T16:51:31.079Z,9.93
2022-12-29T16:53:59.883Z,9.94
2022-12-29T16:56:30.292Z,9.93
2022-12-29T16:59:04.437Z,9.91
2022-12-29T17:01:33.176Z,9.87
2022-12-29T17:04:03.499Z,9.84
2022-12-29T17:06:32.563Z,9.85
2022-12-29T17:09:00.839Z,9.71
2022-12-29T17:12:05.311Z,9.67
2022-12-29T17:14:44.847Z,9.50
2022-12-29T17:17:20.087Z,9.41
2022-12-29T17:19:51.876Z,9.43
2022-12-29T17:22:22.598Z,9.46
2022-12-29T17:24:50.723Z,9.46
2022-12-29T17:27:25.620Z,9.42
2022-12-29T17:29:57.447Z,9.44
2022-12-29T17:32:25.799Z,9.46
2022-12-29T17:34:53.897Z,9.51
2022-12-29T17:37:39.829Z,9.47
2022-12-29T17:40:10.233Z,9.50
2022-12-29T17:42:43.520Z,9.55
2022-12-29T17:45:17.578Z,9.59
2022-12-29T17:47:46.077Z,9.58
2022-12-29T17:50:15.860Z,9.60
2022-12-29T17:52:45.126Z,9.57
2022-12-29T17:55:17.629Z,9.51
2022-12-29T17:57:46.044Z,9.52
2022-12-29T18:00:20.264Z,9.47
2022-12-29T18:02:49.319Z,9.42
2022-12-29T18:05:20.624Z,9.40
2022-12-29T18:07:49.258Z,9.40
2022-12-29T18:10:17.552Z,9.40
2022-12-29T18:12:47.199Z,9.40
2022-12-29T18:15:21.654Z,9.42
2022-12-29T18:17:50.303Z,9.43
2022-12-29T18:20:18.562Z,9.36
2022-12-29T18:22:46.674Z,9.38
2022-12-29T18:25:22.538Z,9.33
2022-12-29T18:27:50.751Z,9.33
2022-12-29T18:30:20.402Z,9.25
2022-12-29T18:32:48.604Z,9.24
2022-12-29T18:35:19.624Z,9.26
2022-12-29T18:37:47.822Z,9.28
2022-12-29T18:40:16.115Z,9.22
2022-12-29T18:42:44.214Z,9.17
2022-12-29T18:45:18.626Z,9.19
2022-12-29T18:47:48.186Z,9.13
2022-12-29T18:50:17.741Z,9.13
2022-12-29T18:52:47.772Z,9.14
2022-12-29T18:55:18.361Z,9.10
2022-12-29T18:57:46.545Z,9.11
2022-12-29T19:00:16.787Z,9.02
2022-12-29T19:02:45.792Z,9.05
2022-12-29T19:05:20.971Z,9.00
2022-12-29T19:07:49.294Z,9.09
2022-12-29T19:10:18.237Z,9.15
2022-12-29T19:12:46.405Z,9.14
2022-12-29T19:15:23.402Z,9.09
2022-12-29T19:18:08.613Z,9.05
2022-12-29T19:20:43.117Z,9.02
2022-12-29T19:23:12.969Z,8.98
2022-12-29T19:25:42.070Z,9.00
2022-12-29T19:28:19.425Z,8.98
2022-12-29T19:30:52.144Z,9.04
2022-12-29T19:33:21.777Z,9.08
2022-12-29T19:35:52.114Z,9.07
2022-12-29T19:38:21.219Z,9.06
2022-12-29T19:40:51.504Z,9.10
2022-12-29T19:43:19.972Z,9.11
2022-12-29T19:45:48.206Z,9.14
2022-12-29T19:48:18.621Z,9.10
2022-12-29T19:50:47.531Z,8.98
2022-12-29T19:53:17.253Z,8.89
2022-12-29T19:55:46.192Z,8.86
2022-12-29T19:58:14.957Z,8.81
2022-12-29T20:00:44.537Z,8.81
2022-12-29T20:03:13.257Z,8.72
2022-12-29T20:05:42.002Z,8.77
2022-12-29T20:08:10.490Z,8.62
2022-12-29T20:10:40.165Z,8.55
2022-12-29T20:13:08.846Z,8.55
2022-12-29T20:15:37.126Z,8.57
2022-12-29T20:18:13.627Z,8.48
2022-12-29T20:20:43.351Z,8.51
2022-12-29T20:23:11.713Z,8.55
2022-12-29T20:25:45.205Z,8.54
2022-12-29T20:28:14.720Z,8.55
2022-12-29T20:30:43.692Z,8.51
2022-12-29T20:33:12.167Z,8.56
2022-12-29T20:35:40.651Z,8.53
2022-12-29T20:38:09.102Z,8.56
2022-12-29T20:40:44.207Z,8.58
2022-12-29T20:43:17.004Z,8.63
2022-12-29T20:45:45.496Z,8.65
2022-12-29T20:48:13.719Z,8.69
2022-12-29T20:50:42.356Z,8.75
2022-12-29T20:53:11.815Z,8.73
2022-12-29T20:55:41.228Z,8.74
2022-12-29T20:58:25.832Z,8.76
2022-12-29T21:00:56.073Z,8.81
2022-12-29T21:03:24.785Z,8.79
2022-12-29T21:05:55.358Z,8.85
2022-12-29T21:08:24.215Z,8.86
2022-12-29T21:10:52.684Z,8.83
2022-12-29T21:13:21.200Z,8.84
2022-12-29T21:15:49.602Z,8.82
2022-12-29T21:18:19.749Z,8.81
2022-12-29T21:20:56.496Z,8.83
2022-12-29T21:23:25.045Z,8.85
2022-12-29T21:25:53.773Z,8.88
2022-12-29T21:28:22.718Z,8.85
2022-12-29T21:30:51.860Z,8.69
2022-12-29T21:33:22.264Z,8.57
2022-12-29T21:35:50.417Z,8.56
2022-12-29T21:38:18.788Z,8.59
2022-12-29T21:41:13.161Z,8.52
2022-12-29T21:43:41.697Z,8.54
2022-12-29T21:46:09.476Z,8.56
2022-12-29T21:48:39.453Z,8.48
2022-12-29T21:51:30.590Z,8.41
2022-12-29T21:54:21.754Z,8.49
2022-12-29T21:56:50.280Z,8.47
2022-12-29T22:02:56.589Z,8.45
2022-12-29T22:05:44.273Z,8.43
2022-12-29T22:08:30.241Z,8.25
2022-12-29T22:11:16.264Z,8.19
2022-12-29T22:13:44.371Z,8.07
2022-12-29T22:16:14.985Z,7.91
2022-12-29T22:18:43.238Z,7.97
2022-12-29T22:21:13.743Z,8.05
2022-12-29T22:23:42.120Z,8.04
2022-12-29T22:26:12.205Z,7.99
2022-12-29T22:28:41.835Z,8.03
2022-12-29T22:31:27.249Z,7.97
2022-12-29T22:33:56.492Z,7.93
2022-12-29T22:36:27.192Z,7.86
2022-12-29T22:38:55.833Z,7.92
2022-12-29T22:41:24.471Z,7.90
2022-12-29T22:43:52.713Z,7.94
2022-12-29T22:46:20.971Z,7.95
2022-12-29T22:48:49.620Z,7.88
2022-12-29T22:51:18.153Z,7.97
2022-12-29T22:53:50.052Z,8.04
2022-12-29T22:56:18.446Z,7.91
2022-12-29T22:58:48.561Z,7.93
2022-12-29T23:01:18.712Z,7.96
2022-12-29T23:03:47.153Z,7.97
2022-12-29T23:06:17.227Z,7.97
2022-12-29T23:08:48.068Z,7.94
2022-12-29T23:11:16.796Z,7.76
2022-12-29T23:13:46.324Z,7.70
2022-12-29T23:16:15.959Z,7.78
2022-12-29T23:18:44.779Z,7.81
2022-12-29T23:21:13.777Z,7.83
2022-12-29T23:23:57.741Z,7.77
2022-12-29T23:26:30.443Z,7.74
2022-12-29T23:29:00.608Z,7.74
2022-12-29T23:31:29.691Z,7.75
2022-12-29T23:33:58.163Z,7.81
2022-12-29T23:36:26.526Z,7.79
2022-12-29T23:38:54.699Z,7.87
2022-12-29T23:41:23.237Z,7.86
2022-12-29T23:43:53.202Z,7.90
2022-12-29T23:46:23.023Z,7.91
2022-12-29T23:48:51.335Z,7.86
2022-12-29T23:51:19.656Z,7.86
2022-12-29T23:53:47.999Z,7.89
2022-12-29T23:56:18.183Z,7.95
2022-12-29T23:58:46.419Z,7.94
